This is the latest recevied weather packets stored in our database for station/object W2DRT. If no packets are shown the sender has not sent any weather packets the latest 10 day(s).
| Time | Temp. | Humidity | Pressure | Rain* | Wind** | Luminosity | Snow |
|---|---|---|---|---|---|---|---|
| 1777692346 | 11.11° C | 56% | 1013.3 hPa | - | - | - | - |
| 1777691747 | 11.67° C | 55% | 1012.9 hPa | - | - | - | - |
| 1777691143 | 11.67° C | 54% | 1013.3 hPa | - | - | - | - |
| 1777690543 | 11.67° C | 53% | 1013.3 hPa | - | - | - | - |
| 1777689938 | 11.67° C | 52% | 1013.3 hPa | - | - | - | - |
| 1777689334 | 12.22° C | 51% | 1013.3 hPa | - | - | - | - |
| 1777688734 | 12.22° C | 50% | 1013.3 hPa | - | - | - | - |
| 1777688129 | 12.78° C | 49% | 1013.6 hPa | - | - | - | - |
| 1777687523 | 12.78° C | 48% | 1012.9 hPa | - | - | - | - |
| 1777672464 | 25° C | 21% | 1011.9 hPa | - | - | - | - |
| 1777669452 | 27.22° C | 27% | 1011.6 hPa | - | - | - | - |
| 1777667650 | 21.67° C | 37% | 1011.2 hPa | - | - | - | - |
| 1777667050 | 20° C | 38% | 1011.6 hPa | - | - | - | - |
| 1777666449 | 19.44° C | 39% | 1011.2 hPa | - | - | - | - |
| 1777664646 | 20° C | 40% | 1011.9 hPa | - | - | - | - |
| 1777659832 | 18.89° C | 45% | 1012.6 hPa | - | - | - | - |
| 1777659231 | 18.33° C | 45% | 1012.9 hPa | - | - | - | - |
| 1777658630 | 17.78° C | 45% | 1013.3 hPa | - | - | - | - |
| 1777656222 | 16.11° C | 46% | 1013.3 hPa | - | - | - | - |
| 1777655621 | 16.67° C | 48% | 1013.6 hPa | - | - | - | - |
| 1777653811 | 16.11° C | 49% | 1014 hPa | - | - | - | - |
| 1777653209 | 15.56° C | 50% | 1014 hPa | - | - | - | - |
| 1777652608 | 15.56° C | 52% | 1014.3 hPa | - | - | - | - |
| 1777652008 | 15° C | 51% | 1014.3 hPa | - | - | - | - |
| 1777651407 | 15° C | 51% | 1014.3 hPa | - | - | - | - |
* Rain since midnight (hover to see other rain measurements)
** Current wind speed in m/s (hover to see current wind gust speed)